sensor_id;sensor_type;location;lat;lon;timestamp;pressure;altitude;pressure_sealevel;temperature;humidity
61814;BME280;57055;-35.296;149.168;2023-02-12T00:01:32;94198.20;;;22.94;41.19
61814;BME280;57055;-35.296;149.168;2023-02-12T00:04:01;94194.78;;;22.95;41.00
61814;BME280;57055;-35.296;149.168;2023-02-12T00:06:31;94197.25;;;23.10;40.30
61814;BME280;57055;-35.296;149.168;2023-02-12T00:09:01;94194.82;;;23.05;41.08
61814;BME280;57055;-35.296;149.168;2023-02-12T00:11:30;94196.82;;;23.14;44.14
61814;BME280;57055;-35.296;149.168;2023-02-12T00:14:00;94194.14;;;23.23;43.15
61814;BME280;57055;-35.296;149.168;2023-02-12T00:16:29;94189.35;;;23.26;45.21
61814;BME280;57055;-35.296;149.168;2023-02-12T00:18:58;94187.79;;;23.16;47.11
61814;BME280;57055;-35.296;149.168;2023-02-12T00:21:28;94186.73;;;23.44;47.85
61814;BME280;57055;-35.296;149.168;2023-02-12T00:23:57;94187.12;;;23.03;48.97
61814;BME280;57055;-35.296;149.168;2023-02-12T00:26:26;94178.96;;;23.02;49.04
61814;BME280;57055;-35.296;149.168;2023-02-12T00:28:55;94175.35;;;23.26;49.84
61814;BME280;57055;-35.296;149.168;2023-02-12T00:31:26;94173.95;;;22.95;50.30
61814;BME280;57055;-35.296;149.168;2023-02-12T00:33:55;94178.37;;;23.36;45.93
61814;BME280;57055;-35.296;149.168;2023-02-12T00:36:28;94178.52;;;23.63;47.09
61814;BME280;57055;-35.296;149.168;2023-02-12T00:38:58;94169.62;;;23.25;47.47
61814;BME280;57055;-35.296;149.168;2023-02-12T00:41:27;94161.00;;;23.18;43.60
61814;BME280;57055;-35.296;149.168;2023-02-12T00:43:57;94156.34;;;23.10;48.43
61814;BME280;57055;-35.296;149.168;2023-02-12T00:46:26;94149.52;;;23.46;49.32
61814;BME280;57055;-35.296;149.168;2023-02-12T00:48:55;94154.20;;;23.21;49.80
61814;BME280;57055;-35.296;149.168;2023-02-12T00:51:24;94157.18;;;23.47;47.90
61814;BME280;57055;-35.296;149.168;2023-02-12T00:53:53;94158.85;;;23.66;48.42
61814;BME280;57055;-35.296;149.168;2023-02-12T00:56:22;94161.40;;;23.71;48.12
61814;BME280;57055;-35.296;149.168;2023-02-12T00:58:50;94160.19;;;23.84;47.31
61814;BME280;57055;-35.296;149.168;2023-02-12T01:01:20;94154.34;;;23.99;45.07
61814;BME280;57055;-35.296;149.168;2023-02-12T01:03:49;94152.15;;;24.16;45.68
61814;BME280;57055;-35.296;149.168;2023-02-12T01:06:17;94152.25;;;24.00;46.68
61814;BME280;57055;-35.296;149.168;2023-02-12T01:08:49;94151.73;;;24.28;47.20
61814;BME280;57055;-35.296;149.168;2023-02-12T01:11:19;94150.52;;;24.24;43.84
61814;BME280;57055;-35.296;149.168;2023-02-12T01:13:48;94154.58;;;24.04;42.41
61814;BME280;57055;-35.296;149.168;2023-02-12T01:16:19;94160.69;;;23.67;46.08
61814;BME280;57055;-35.296;149.168;2023-02-12T01:18:49;94160.27;;;23.97;46.96
61814;BME280;57055;-35.296;149.168;2023-02-12T01:21:20;94161.13;;;24.27;44.22
61814;BME280;57055;-35.296;149.168;2023-02-12T01:23:49;94160.44;;;23.93;44.55
61814;BME280;57055;-35.296;149.168;2023-02-12T01:26:19;94157.65;;;24.28;44.67
61814;BME280;57055;-35.296;149.168;2023-02-12T01:28:51;94153.86;;;24.05;45.02
61814;BME280;57055;-35.296;149.168;2023-02-12T01:31:23;94147.18;;;24.11;46.39
61814;BME280;57055;-35.296;149.168;2023-02-12T01:33:54;94138.81;;;24.53;45.29
61814;BME280;57055;-35.296;149.168;2023-02-12T01:36:24;94132.39;;;24.34;43.61
61814;BME280;57055;-35.296;149.168;2023-02-12T01:38:53;94131.73;;;24.74;42.71
61814;BME280;57055;-35.296;149.168;2023-02-12T01:41:24;94125.35;;;24.62;43.77
61814;BME280;57055;-35.296;149.168;2023-02-12T01:44:14;94126.87;;;24.88;41.94
61814;BME280;57055;-35.296;149.168;2023-02-12T01:46:45;94129.46;;;24.62;42.89
61814;BME280;57055;-35.296;149.168;2023-02-12T01:49:19;94130.79;;;24.61;42.86
61814;BME280;57055;-35.296;149.168;2023-02-12T01:51:51;94128.70;;;24.62;43.08
61814;BME280;57055;-35.296;149.168;2023-02-12T01:54:23;94121.06;;;24.88;40.43
61814;BME280;57055;-35.296;149.168;2023-02-12T01:56:54;94123.95;;;25.01;40.96
61814;BME280;57055;-35.296;149.168;2023-02-12T01:59:23;94119.57;;;25.09;41.93
61814;BME280;57055;-35.296;149.168;2023-02-12T02:01:53;94115.77;;;25.11;41.11
61814;BME280;57055;-35.296;149.168;2023-02-12T02:04:24;94114.18;;;25.01;40.46
61814;BME280;57055;-35.296;149.168;2023-02-12T02:06:59;94104.30;;;25.09;40.97
61814;BME280;57055;-35.296;149.168;2023-02-12T02:09:30;94107.50;;;25.00;41.24
61814;BME280;57055;-35.296;149.168;2023-02-12T02:12:00;94101.97;;;25.14;41.12
61814;BME280;57055;-35.296;149.168;2023-02-12T02:14:29;94098.73;;;24.62;43.77
61814;BME280;57055;-35.296;149.168;2023-02-12T02:17:12;94095.66;;;24.82;40.69
61814;BME280;57055;-35.296;149.168;2023-02-12T02:20:51;94091.48;;;25.23;38.96
61814;BME280;57055;-35.296;149.168;2023-02-12T02:23:47;94087.58;;;25.48;38.54
61814;BME280;57055;-35.296;149.168;2023-02-12T02:27:12;94084.40;;;25.50;38.15
61814;BME280;57055;-35.296;149.168;2023-02-12T02:30:13;94085.77;;;25.81;36.91
61814;BME280;57055;-35.296;149.168;2023-02-12T02:32:54;94082.34;;;25.48;36.71
61814;BME280;57055;-35.296;149.168;2023-02-12T02:35:33;94084.85;;;25.60;36.09
61814;BME280;57055;-35.296;149.168;2023-02-12T02:38:15;94089.00;;;26.19;36.41
61814;BME280;57055;-35.296;149.168;2023-02-12T02:40:52;94091.03;;;25.54;38.11
61814;BME280;57055;-35.296;149.168;2023-02-12T02:43:28;94093.38;;;25.59;40.28
61814;BME280;57055;-35.296;149.168;2023-02-12T02:46:03;94091.66;;;25.68;39.37
61814;BME280;57055;-35.296;149.168;2023-02-12T02:48:36;94086.41;;;25.73;39.62
61814;BME280;57055;-35.296;149.168;2023-02-12T02:51:13;94084.52;;;25.77;38.40
61814;BME280;57055;-35.296;149.168;2023-02-12T02:53:49;94084.42;;;25.80;37.25
61814;BME280;57055;-35.296;149.168;2023-02-12T02:56:22;94083.04;;;25.79;37.13
61814;BME280;57055;-35.296;149.168;2023-02-12T02:58:56;94077.57;;;25.83;38.20
61814;BME280;57055;-35.296;149.168;2023-02-12T03:01:29;94077.66;;;25.59;37.69
61814;BME280;57055;-35.296;149.168;2023-02-12T03:04:03;94079.56;;;25.51;38.79
61814;BME280;57055;-35.296;149.168;2023-02-12T03:06:40;94075.21;;;25.93;36.93
61814;BME280;57055;-35.296;149.168;2023-02-12T03:09:15;94078.46;;;26.18;38.92
61814;BME280;57055;-35.296;149.168;2023-02-12T03:11:47;94079.61;;;25.95;37.44
61814;BME280;57055;-35.296;149.168;2023-02-12T03:14:22;94077.45;;;26.34;34.97
61814;BME280;57055;-35.296;149.168;2023-02-12T03:17:00;94073.70;;;26.43;34.15
61814;BME280;57055;-35.296;149.168;2023-02-12T03:19:36;94078.00;;;26.23;36.91
61814;BME280;57055;-35.296;149.168;2023-02-12T03:22:11;94077.96;;;26.59;38.53
61814;BME280;57055;-35.296;149.168;2023-02-12T03:24:47;94080.74;;;26.31;37.75
61814;BME280;57055;-35.296;149.168;2023-02-12T03:27:22;94073.85;;;26.18;37.92
61814;BME280;57055;-35.296;149.168;2023-02-12T03:29:58;94075.57;;;25.97;41.29
61814;BME280;57055;-35.296;149.168;2023-02-12T03:32:32;94069.53;;;26.16;36.74
61814;BME280;57055;-35.296;149.168;2023-02-12T03:35:17;94065.52;;;25.76;37.17
61814;BME280;57055;-35.296;149.168;2023-02-12T03:37:55;94065.41;;;26.18;37.60
61814;BME280;57055;-35.296;149.168;2023-02-12T03:40:30;94064.51;;;25.92;38.79
61814;BME280;57055;-35.296;149.168;2023-02-12T03:43:08;94063.36;;;26.18;36.79
61814;BME280;57055;-35.296;149.168;2023-02-12T03:45:48;94070.62;;;26.32;39.48
61814;BME280;57055;-35.296;149.168;2023-02-12T03:48:25;94069.28;;;26.32;39.86
61814;BME280;57055;-35.296;149.168;2023-02-12T03:51:02;94067.49;;;26.23;36.39
61814;BME280;57055;-35.296;149.168;2023-02-12T03:53:32;94069.45;;;26.34;38.79
61814;BME280;57055;-35.296;149.168;2023-02-12T03:56:04;94068.59;;;26.04;36.75
61814;BME280;57055;-35.296;149.168;2023-02-12T03:58:37;94067.08;;;26.52;37.78
61814;BME280;57055;-35.296;149.168;2023-02-12T04:01:09;94067.68;;;26.48;36.04
61814;BME280;57055;-35.296;149.168;2023-02-12T04:03:38;94066.27;;;26.03;36.48
61814;BME280;57055;-35.296;149.168;2023-02-12T04:06:21;94062.94;;;26.12;37.20
61814;BME280;57055;-35.296;149.168;2023-02-12T04:08:52;94057.86;;;26.09;39.17
61814;BME280;57055;-35.296;149.168;2023-02-12T04:11:32;94056.91;;;26.37;34.26
61814;BME280;57055;-35.296;149.168;2023-02-12T04:14:17;94053.77;;;26.16;34.03
61814;BME280;57055;-35.296;149.168;2023-02-12T04:16:56;94056.37;;;26.07;32.51
61814;BME280;57055;-35.296;149.168;2023-02-12T04:19:35;94051.58;;;26.48;30.90
61814;BME280;57055;-35.296;149.168;2023-02-12T04:22:20;94052.82;;;26.41;32.21
61814;BME280;57055;-35.296;149.168;2023-02-12T04:24:58;94054.37;;;26.04;39.61
61814;BME280;57055;-35.296;149.168;2023-02-12T04:27:37;94048.26;;;26.42;38.74
61814;BME280;57055;-35.296;149.168;2023-02-12T04:30:18;94052.94;;;26.42;37.55
61814;BME280;57055;-35.296;149.168;2023-02-12T04:32:50;94051.73;;;26.43;38.49
61814;BME280;57055;-35.296;149.168;2023-02-12T04:35:26;94049.63;;;26.52;36.38
61814;BME280;57055;-35.296;149.168;2023-02-12T04:38:04;94045.48;;;26.79;33.85
61814;BME280;57055;-35.296;149.168;2023-02-12T04:40:36;94040.23;;;26.99;32.25
61814;BME280;57055;-35.296;149.168;2023-02-12T04:43:06;94035.68;;;27.20;30.96
61814;BME280;57055;-35.296;149.168;2023-02-12T04:45:36;94032.72;;;26.84;32.78
61814;BME280;57055;-35.296;149.168;2023-02-12T04:48:06;94030.93;;;27.49;32.74
61814;BME280;57055;-35.296;149.168;2023-02-12T04:50:40;94032.13;;;27.34;33.48
61814;BME280;57055;-35.296;149.168;2023-02-12T04:53:10;94030.18;;;27.42;36.09
61814;BME280;57055;-35.296;149.168;2023-02-12T04:55:38;94028.68;;;27.00;35.62
61814;BME280;57055;-35.296;149.168;2023-02-12T04:58:07;94027.56;;;27.34;35.97
61814;BME280;57055;-35.296;149.168;2023-02-12T05:00:36;94031.08;;;27.36;35.59
61814;BME280;57055;-35.296;149.168;2023-02-12T05:03:06;94032.20;;;27.26;34.39
61814;BME280;57055;-35.296;149.168;2023-02-12T05:05:35;94035.55;;;27.38;33.63
61814;BME280;57055;-35.296;149.168;2023-02-12T05:08:04;94032.52;;;27.36;36.94
61814;BME280;57055;-35.296;149.168;2023-02-12T05:10:33;94030.42;;;27.06;36.82
61814;BME280;57055;-35.296;149.168;2023-02-12T05:13:03;94028.25;;;26.89;35.87
61814;BME280;57055;-35.296;149.168;2023-02-12T05:15:32;94033.46;;;26.83;35.89
61814;BME280;57055;-35.296;149.168;2023-02-12T05:18:01;94038.27;;;26.35;38.99
61814;BME280;57055;-35.296;149.168;2023-02-12T05:20:30;94035.67;;;26.35;36.81
61814;BME280;57055;-35.296;149.168;2023-02-12T05:23:00;94036.26;;;26.49;34.82
61814;BME280;57055;-35.296;149.168;2023-02-12T05:25:29;94035.65;;;26.74;40.02
61814;BME280;57055;-35.296;149.168;2023-02-12T05:27:58;94033.64;;;26.17;37.78
61814;BME280;57055;-35.296;149.168;2023-02-12T05:30:28;94034.19;;;26.22;38.18
61814;BME280;57055;-35.296;149.168;2023-02-12T05:32:57;94033.11;;;26.74;35.40
61814;BME280;57055;-35.296;149.168;2023-02-12T05:35:26;94028.45;;;26.62;36.53
61814;BME280;57055;-35.296;149.168;2023-02-12T05:37:55;94026.76;;;26.59;35.01
61814;BME280;57055;-35.296;149.168;2023-02-12T05:40:24;94027.85;;;26.79;37.43
61814;BME280;57055;-35.296;149.168;2023-02-12T05:42:54;94034.17;;;26.63;40.40
61814;BME280;57055;-35.296;149.168;2023-02-12T05:45:23;94037.19;;;26.52;36.81
61814;BME280;57055;-35.296;149.168;2023-02-12T05:47:52;94027.96;;;26.68;37.63
61814;BME280;57055;-35.296;149.168;2023-02-12T05:50:22;94022.63;;;26.87;35.48
61814;BME280;57055;-35.296;149.168;2023-02-12T05:52:51;94022.32;;;27.15;34.62
61814;BME280;57055;-35.296;149.168;2023-02-12T05:55:20;94023.73;;;27.07;33.09
61814;BME280;57055;-35.296;149.168;2023-02-12T05:57:50;94023.27;;;27.28;33.54
61814;BME280;57055;-35.296;149.168;2023-02-12T06:00:20;94022.38;;;27.20;38.65
61814;BME280;57055;-35.296;149.168;2023-02-12T06:02:49;94023.15;;;26.95;36.25
61814;BME280;57055;-35.296;149.168;2023-02-12T06:05:18;94025.32;;;27.11;35.64
61814;BME280;57055;-35.296;149.168;2023-02-12T06:07:48;94026.62;;;27.04;38.16
61814;BME280;57055;-35.296;149.168;2023-02-12T06:10:17;94024.15;;;27.05;36.75
61814;BME280;57055;-35.296;149.168;2023-02-12T06:12:46;94024.47;;;26.96;38.88
61814;BME280;57055;-35.296;149.168;2023-02-12T06:15:15;94029.97;;;26.76;39.09
61814;BME280;57055;-35.296;149.168;2023-02-12T06:17:44;94030.44;;;26.59;38.19
61814;BME280;57055;-35.296;149.168;2023-02-12T06:20:14;94025.96;;;26.81;35.24
61814;BME280;57055;-35.296;149.168;2023-02-12T06:22:43;94024.15;;;26.69;34.66
61814;BME280;57055;-35.296;149.168;2023-02-12T06:25:12;94025.28;;;26.68;37.38
61814;BME280;57055;-35.296;149.168;2023-02-12T06:27:41;94025.55;;;26.67;37.28
61814;BME280;57055;-35.296;149.168;2023-02-12T06:30:11;94022.88;;;26.65;35.76
61814;BME280;57055;-35.296;149.168;2023-02-12T06:32:40;94025.35;;;26.56;36.64
61814;BME280;57055;-35.296;149.168;2023-02-12T06:35:10;94022.49;;;26.78;39.19
61814;BME280;57055;-35.296;149.168;2023-02-12T06:37:39;94028.67;;;26.55;39.38
61814;BME280;57055;-35.296;149.168;2023-02-12T06:40:09;94028.31;;;26.48;36.08
61814;BME280;57055;-35.296;149.168;2023-02-12T06:42:37;94040.33;;;26.51;36.39
61814;BME280;57055;-35.296;149.168;2023-02-12T06:45:07;94039.11;;;26.44;38.50
61814;BME280;57055;-35.296;149.168;2023-02-12T06:47:36;94043.93;;;26.57;38.91
61814;BME280;57055;-35.296;149.168;2023-02-12T06:50:06;94050.55;;;25.94;42.20
61814;BME280;57055;-35.296;149.168;2023-02-12T06:52:36;94047.71;;;26.26;36.74
61814;BME280;57055;-35.296;149.168;2023-02-12T06:55:05;94050.75;;;26.26;36.07
61814;BME280;57055;-35.296;149.168;2023-02-12T06:57:34;94056.42;;;26.22;34.17
61814;BME280;57055;-35.296;149.168;2023-02-12T07:00:04;94056.44;;;26.27;33.44
61814;BME280;57055;-35.296;149.168;2023-02-12T07:02:33;94058.94;;;26.57;32.93
61814;BME280;57055;-35.296;149.168;2023-02-12T07:05:02;94059.82;;;26.54;35.93
61814;BME280;57055;-35.296;149.168;2023-02-12T07:07:32;94062.01;;;26.55;39.15
61814;BME280;57055;-35.296;149.168;2023-02-12T07:10:01;94067.90;;;26.20;43.34
61814;BME280;57055;-35.296;149.168;2023-02-12T07:12:30;94069.99;;;25.90;44.65
61814;BME280;57055;-35.296;149.168;2023-02-12T07:15:00;94074.06;;;25.53;44.98
61814;BME280;57055;-35.296;149.168;2023-02-12T07:17:30;94084.34;;;25.96;40.27
61814;BME280;57055;-35.296;149.168;2023-02-12T07:19:59;94096.13;;;25.68;38.45
61814;BME280;57055;-35.296;149.168;2023-02-12T07:22:28;94111.02;;;25.68;43.84
61814;BME280;57055;-35.296;149.168;2023-02-12T07:24:57;94116.18;;;25.63;44.42
61814;BME280;57055;-35.296;149.168;2023-02-12T07:27:26;94115.35;;;25.30;45.70
61814;BME280;57055;-35.296;149.168;2023-02-12T07:29:54;94119.36;;;24.91;46.85
61814;BME280;57055;-35.296;149.168;2023-02-12T07:32:24;94127.36;;;24.64;46.63
61814;BME280;57055;-35.296;149.168;2023-02-12T07:34:52;94146.36;;;24.75;47.51
61814;BME280;57055;-35.296;149.168;2023-02-12T07:37:22;94150.45;;;24.28;47.48
61814;BME280;57055;-35.296;149.168;2023-02-12T07:39:51;94159.21;;;24.03;50.80
61814;BME280;57055;-35.296;149.168;2023-02-12T07:42:20;94166.87;;;24.44;48.53
61814;BME280;57055;-35.296;149.168;2023-02-12T07:44:49;94177.06;;;23.84;50.26
61814;BME280;57055;-35.296;149.168;2023-02-12T07:47:18;94174.75;;;23.97;48.32
61814;BME280;57055;-35.296;149.168;2023-02-12T07:49:47;94186.40;;;23.72;48.90
61814;BME280;57055;-35.296;149.168;2023-02-12T07:52:16;94190.41;;;23.73;49.87
61814;BME280;57055;-35.296;149.168;2023-02-12T07:54:45;94193.36;;;23.63;50.62
61814;BME280;57055;-35.296;149.168;2023-02-12T07:57:15;94205.16;;;23.63;50.90
61814;BME280;57055;-35.296;149.168;2023-02-12T07:59:44;94209.29;;;23.47;49.54
61814;BME280;57055;-35.296;149.168;2023-02-12T08:02:13;94207.31;;;23.20;49.66
61814;BME280;57055;-35.296;149.168;2023-02-12T08:04:42;94216.08;;;23.09;50.56
61814;BME280;57055;-35.296;149.168;2023-02-12T08:07:11;94220.65;;;22.97;50.19
61814;BME280;57055;-35.296;149.168;2023-02-12T08:09:40;94226.88;;;22.70;51.36
61814;BME280;57055;-35.296;149.168;2023-02-12T08:12:09;94231.04;;;23.01;50.31
61814;BME280;57055;-35.296;149.168;2023-02-12T08:14:39;94235.50;;;23.09;53.11
61814;BME280;57055;-35.296;149.168;2023-02-12T08:17:08;94239.03;;;23.13;53.00
61814;BME280;57055;-35.296;149.168;2023-02-12T08:19:38;94247.29;;;22.87;52.36
61814;BME280;57055;-35.296;149.168;2023-02-12T08:22:07;94247.37;;;23.07;50.64
61814;BME280;57055;-35.296;149.168;2023-02-12T08:24:36;94254.23;;;22.80;50.55
61814;BME280;57055;-35.296;149.168;2023-02-12T08:27:05;94258.51;;;22.55;51.03
61814;BME280;57055;-35.296;149.168;2023-02-12T08:29:34;94265.22;;;22.48;51.04
61814;BME280;57055;-35.296;149.168;2023-02-12T08:32:04;94272.60;;;22.48;51.54
61814;BME280;57055;-35.296;149.168;2023-02-12T08:34:34;94285.61;;;22.23;51.20
61814;BME280;57055;-35.296;149.168;2023-02-12T08:37:04;94287.72;;;22.30;51.51
61814;BME280;57055;-35.296;149.168;2023-02-12T08:39:33;94289.07;;;22.27;51.77
61814;BME280;57055;-35.296;149.168;2023-02-12T08:42:02;94289.44;;;22.29;51.60
61814;BME280;57055;-35.296;149.168;2023-02-12T08:44:31;94292.26;;;22.31;52.57
61814;BME280;57055;-35.296;149.168;2023-02-12T08:47:00;94296.01;;;22.27;51.27
61814;BME280;57055;-35.296;149.168;2023-02-12T08:49:30;94300.79;;;22.19;52.30
61814;BME280;57055;-35.296;149.168;2023-02-12T08:52:00;94315.51;;;22.14;51.52
61814;BME280;57055;-35.296;149.168;2023-02-12T08:54:29;94326.08;;;22.07;52.07
61814;BME280;57055;-35.296;149.168;2023-02-12T08:57:00;94329.96;;;21.84;51.99
61814;BME280;57055;-35.296;149.168;2023-02-12T08:59:29;94333.74;;;21.47;52.64
61814;BME280;57055;-35.296;149.168;2023-02-12T09:01:58;94343.21;;;21.61;53.69
61814;BME280;57055;-35.296;149.168;2023-02-12T09:04:28;94347.56;;;21.96;52.90
61814;BME280;57055;-35.296;149.168;2023-02-12T09:06:57;94349.42;;;21.47;52.78
61814;BME280;57055;-35.296;149.168;2023-02-12T09:09:26;94354.42;;;21.93;52.53
61814;BME280;57055;-35.296;149.168;2023-02-12T09:11:55;94356.69;;;21.50;52.79
61814;BME280;57055;-35.296;149.168;2023-02-12T09:14:26;94363.42;;;21.61;53.33
61814;BME280;57055;-35.296;149.168;2023-02-12T09:16:55;94370.22;;;21.61;52.84
61814;BME280;57055;-35.296;149.168;2023-02-12T09:19:25;94369.47;;;21.67;53.18
61814;BME280;57055;-35.296;149.168;2023-02-12T09:21:55;94374.73;;;21.33;52.96
61814;BME280;57055;-35.296;149.168;2023-02-12T09:24:24;94376.39;;;21.36;53.94
61814;BME280;57055;-35.296;149.168;2023-02-12T09:26:53;94379.86;;;21.59;53.00
61814;BME280;57055;-35.296;149.168;2023-02-12T09:29:22;94393.21;;;21.22;53.42
61814;BME280;57055;-35.296;149.168;2023-02-12T09:31:52;94404.46;;;21.32;53.23
61814;BME280;57055;-35.296;149.168;2023-02-12T09:34:20;94406.64;;;21.55;53.28
61814;BME280;57055;-35.296;149.168;2023-02-12T09:36:49;94412.81;;;21.37;53.43
61814;BME280;57055;-35.296;149.168;2023-02-12T09:39:18;94413.14;;;21.34;52.96
61814;BME280;57055;-35.296;149.168;2023-02-12T09:42:12;94430.95;;;21.31;53.00
61814;BME280;57055;-35.296;149.168;2023-02-12T09:44:51;94438.75;;;21.11;52.95
61814;BME280;57055;-35.296;149.168;2023-02-12T09:47:29;94444.57;;;21.04;52.94
61814;BME280;57055;-35.296;149.168;2023-02-12T09:50:12;94449.76;;;21.15;52.87
61814;BME280;57055;-35.296;149.168;2023-02-12T09:52:45;94463.17;;;21.09;52.75
61814;BME280;57055;-35.296;149.168;2023-02-12T09:55:16;94470.02;;;21.00;52.65
61814;BME280;57055;-35.296;149.168;2023-02-12T09:57:47;94479.16;;;20.96;52.66
61814;BME280;57055;-35.296;149.168;2023-02-12T10:00:21;94483.90;;;20.79;52.97
61814;BME280;57055;-35.296;149.168;2023-02-12T10:02:53;94492.83;;;20.77;52.82
61814;BME280;57055;-35.296;149.168;2023-02-12T10:05:26;94498.36;;;20.72;52.90
61814;BME280;57055;-35.296;149.168;2023-02-12T10:08:07;94505.32;;;20.85;52.75
61814;BME280;57055;-35.296;149.168;2023-02-12T10:10:51;94507.36;;;20.88;52.58
61814;BME280;57055;-35.296;149.168;2023-02-12T10:13:33;94506.67;;;20.93;52.65
61814;BME280;57055;-35.296;149.168;2023-02-12T10:16:12;94506.92;;;20.91;52.41
61814;BME280;57055;-35.296;149.168;2023-02-12T10:18:58;94507.38;;;20.83;52.56
61814;BME280;57055;-35.296;149.168;2023-02-12T10:21:44;94502.90;;;20.89;52.54
61814;BME280;57055;-35.296;149.168;2023-02-12T10:24:43;94501.42;;;20.99;52.41
61814;BME280;57055;-35.296;149.168;2023-02-12T10:27:22;94499.65;;;20.76;52.40
61814;BME280;57055;-35.296;149.168;2023-02-12T10:29:55;94504.36;;;20.86;52.76
61814;BME280;57055;-35.296;149.168;2023-02-12T10:32:29;94512.89;;;20.67;52.81
61814;BME280;57055;-35.296;149.168;2023-02-12T10:34:59;94516.48;;;20.61;52.80
61814;BME280;57055;-35.296;149.168;2023-02-12T10:37:36;94518.38;;;20.80;52.77
61814;BME280;57055;-35.296;149.168;2023-02-12T10:40:22;94525.19;;;20.69;52.91
61814;BME280;57055;-35.296;149.168;2023-02-12T10:42:53;94536.01;;;20.47;52.86
61814;BME280;57055;-35.296;149.168;2023-02-12T10:45:25;94534.35;;;20.45;52.83
61814;BME280;57055;-35.296;149.168;2023-02-12T10:48:06;94532.53;;;20.45;52.76
61814;BME280;57055;-35.296;149.168;2023-02-12T10:50:46;94533.13;;;20.35;52.77
61814;BME280;57055;-35.296;149.168;2023-02-12T10:53:21;94538.02;;;20.33;52.81
61814;BME280;57055;-35.296;149.168;2023-02-12T10:56:12;94547.60;;;20.39;52.80
61814;BME280;57055;-35.296;149.168;2023-02-12T10:58:50;94553.77;;;20.54;52.55
61814;BME280;57055;-35.296;149.168;2023-02-12T11:01:23;94555.58;;;20.53;52.39
61814;BME280;57055;-35.296;149.168;2023-02-12T11:03:54;94557.31;;;20.55;52.66
61814;BME280;57055;-35.296;149.168;2023-02-12T11:06:26;94561.86;;;20.56;52.85
61814;BME280;57055;-35.296;149.168;2023-02-12T11:08:55;94563.42;;;20.34;52.66
61814;BME280;57055;-35.296;149.168;2023-02-12T11:11:38;94559.87;;;20.65;52.48
61814;BME280;57055;-35.296;149.168;2023-02-12T11:14:16;94556.82;;;20.15;52.39
61814;BME280;57055;-35.296;149.168;2023-02-12T11:16:52;94556.50;;;20.28;52.61
61814;BME280;57055;-35.296;149.168;2023-02-12T11:19:24;94560.28;;;20.26;52.91
61814;BME280;57055;-35.296;149.168;2023-02-12T11:22:06;94559.26;;;20.45;52.64
61814;BME280;57055;-35.296;149.168;2023-02-12T11:24:37;94556.07;;;20.12;52.72
61814;BME280;57055;-35.296;149.168;2023-02-12T11:27:22;94558.15;;;20.26;52.90
61814;BME280;57055;-35.296;149.168;2023-02-12T11:30:15;94558.55;;;20.28;53.01
61814;BME280;57055;-35.296;149.168;2023-02-12T11:32:45;94558.08;;;20.30;52.82
61814;BME280;57055;-35.296;149.168;2023-02-12T11:35:16;94555.19;;;20.04;52.85
61814;BME280;57055;-35.296;149.168;2023-02-12T11:37:47;94553.55;;;20.04;52.85
61814;BME280;57055;-35.296;149.168;2023-02-12T11:40:21;94540.32;;;20.11;53.45
61814;BME280;57055;-35.296;149.168;2023-02-12T11:42:53;94540.07;;;20.09;54.01
61814;BME280;57055;-35.296;149.168;2023-02-12T11:45:29;94532.67;;;20.22;55.37
61814;BME280;57055;-35.296;149.168;2023-02-12T11:47:59;94536.22;;;19.83;56.27
61814;BME280;57055;-35.296;149.168;2023-02-12T11:50:30;94544.88;;;19.68;56.26
61814;BME280;57055;-35.296;149.168;2023-02-12T11:53:03;94545.43;;;19.57;56.09
61814;BME280;57055;-35.296;149.168;2023-02-12T11:55:36;94551.76;;;19.58;57.07
61814;BME280;57055;-35.296;149.168;2023-02-12T11:58:15;94555.91;;;19.77;56.37
61814;BME280;57055;-35.296;149.168;2023-02-12T12:00:48;94549.67;;;19.30;56.97
61814;BME280;57055;-35.296;149.168;2023-02-12T12:03:23;94549.67;;;19.33;56.98
61814;BME280;57055;-35.296;149.168;2023-02-12T12:05:58;94544.14;;;19.23;57.13
61814;BME280;57055;-35.296;149.168;2023-02-12T12:08:34;94534.51;;;19.66;56.76
61814;BME280;57055;-35.296;149.168;2023-02-12T12:11:11;94534.29;;;19.40;56.55
61814;BME280;57055;-35.296;149.168;2023-02-12T12:13:48;94533.93;;;19.34;57.05
61814;BME280;57055;-35.296;149.168;2023-02-12T12:16:26;94531.67;;;19.44;56.82
61814;BME280;57055;-35.296;149.168;2023-02-12T12:19:01;94527.89;;;19.92;56.46
61814;BME280;57055;-35.296;149.168;2023-02-12T12:21:38;94528.18;;;19.34;56.44
61814;BME280;57055;-35.296;149.168;2023-02-12T12:24:13;94529.38;;;19.64;56.38
61814;BME280;57055;-35.296;149.168;2023-02-12T12:26:49;94522.52;;;19.42;56.04
61814;BME280;57055;-35.296;149.168;2023-02-12T12:29:25;94527.00;;;19.57;56.38
61814;BME280;57055;-35.296;149.168;2023-02-12T12:31:59;94523.10;;;19.33;56.35
61814;BME280;57055;-35.296;149.168;2023-02-12T12:34:29;94518.82;;;19.29;56.22
61814;BME280;57055;-35.296;149.168;2023-02-12T12:37:17;94520.43;;;19.58;56.27
61814;BME280;57055;-35.296;149.168;2023-02-12T12:40:05;94520.32;;;19.45;56.22
61814;BME280;57055;-35.296;149.168;2023-02-12T12:43:02;94519.91;;;19.44;56.50
61814;BME280;57055;-35.296;149.168;2023-02-12T12:46:02;94511.87;;;19.52;56.37
61814;BME280;57055;-35.296;149.168;2023-02-12T12:48:48;94507.40;;;19.34;56.15
61814;BME280;57055;-35.296;149.168;2023-02-12T12:51:34;94510.38;;;19.34;56.35
61814;BME280;57055;-35.296;149.168;2023-02-12T12:54:19;94511.33;;;19.49;56.15
61814;BME280;57055;-35.296;149.168;2023-02-12T12:56:56;94518.44;;;19.51;56.36
61814;BME280;57055;-35.296;149.168;2023-02-12T13:00:11;94514.72;;;19.35;56.11
61814;BME280;57055;-35.296;149.168;2023-02-12T13:05:22;94522.94;;;19.60;56.64